Aérodrome :
LOGIN :

S'inscrire | Disclaimer

   EN    FR    IT 

 










Légende :    VFR   VFR Marginal   IFR   IFR Intensif   IFR Très Intensif
Visi : 
Plafond : 
>= 8 km
>= 3000ft
5 à 8 km
1000 à 3000 ft
1500m à 5 km
500 à 1000 ft
800 à 1500m
200 à 500 ft
< 800m
< 200 ft
Symboles :   Orages  Brouillard  Fortes neiges  Fortes précipitations  Vent > 20 kt
SIGMETs :   Divers  Orages  Givrage  Turbulence  Onde Orograph.  Cendres Volcan.







- Altitude de l'aérodrome : 79 ft
- Code IATA : SPU


LDSP - Split

DERNIER METAR :
  • 190300Z AUTO 36004KT CAVOK 23/13 Q1013 NOSIG

METARs EXPIRÉS :
  • 190230Z AUTO 36006KT CAVOK 23/14 Q1014 NOSIG
  • 190200Z AUTO VRB02KT CAVOK 22/15 Q1013 NOSIG
  • 190130Z AUTO VRB02KT CAVOK 23/13 Q1014
  • 190100Z AUTO 35001KT CAVOK 23/14 Q1014
  • 190030Z AUTO 24002KT CAVOK 23/16 Q1014

TAF TAF LDSP
Valide du 19 à 00h jusqu'au 20 à 00h UTC


182325Z 1900/1924 VRB02KT CAVOK TX33/1912Z TN23/1902Z
BECMG 1909/1911 23008KT
BECMG 1916/1918 VRB02KT
Pas de NOTAMs connus pour ce terrain.



MET'MAP, la Météo Aéronautique d'un coup d'oeil ! - Copyright ORBIFLY Décembre 2007 - Disclaimer

ORBIFLY MET'MAP TEAM :

Programmation & Développement : Alexandra Zaïnal
Conception & Développement : Baudouin d'Aumeries
Co-Programmation & Développement : Marc-Olivier Méhu
Soutien technique & logistique : Manuel Goepfert

Contact : metmap@orbifly.com




SOURCES & CREDITS :

   NOAA